Time;durP1;ratioP1;P1;durP2;ratioP2;P2;SDS_P1;SDS_P2;PMS_P1;PMS_P2;Temp;Humidity;BMP_temperature;BMP_pressure;BME280_temperature;BME280_humidity;BME280_pressure;Samples;Min_cycle;Max_cycle;Signal;HPM_P1;HPM_P2
2023/04/09 00:02:25;;;;;;;2.42;1.45;;;14.90;43.00;;;;;;5984453;29;20039;-70
2023/04/09 00:05:26;;;;;;;2.90;1.58;;;15.00;43.00;;;;;;6014098;29;20031;-67
2023/04/09 00:08:27;;;;;;;3.13;1.58;;;14.90;43.00;;;;;;5984383;29;20098;-69
2023/04/09 00:11:27;;;;;;;1.75;1.50;;;14.90;43.20;;;;;;6022999;29;20030;-69
2023/04/09 00:14:28;;;;;;;4.18;1.75;;;14.90;43.60;;;;;;6007455;29;20034;-70
2023/04/09 00:17:29;;;;;;;2.35;1.63;;;14.80;43.80;;;;;;6005900;29;20124;-69
2023/04/09 00:20:30;;;;;;;2.67;1.52;;;14.70;44.50;;;;;;6007119;29;20033;-67
2023/04/09 00:23:31;;;;;;;1.85;1.55;;;14.70;43.90;;;;;;6004138;29;20062;-68
2023/04/09 00:26:32;;;;;;;5.60;1.77;;;14.60;43.80;;;;;;5983892;29;20030;-68
2023/04/09 00:29:33;;;;;;;2.67;1.70;;;14.60;43.80;;;;;;6012876;29;20023;-68
2023/04/09 00:32:34;;;;;;;4.68;1.67;;;14.60;43.90;;;;;;5982397;29;20034;-68
2023/04/09 00:35:35;;;;;;;2.53;1.20;;;14.50;44.00;;;;;;6005468;29;20037;-67
2023/04/09 00:38:35;;;;;;;2.45;1.33;;;14.50;44.50;;;;;;6023449;29;20045;-67
2023/04/09 00:41:36;;;;;;;3.35;1.75;;;14.40;44.70;;;;;;5982080;29;20038;-68
2023/04/09 00:44:37;;;;;;;2.33;1.20;;;14.30;45.00;;;;;;5990875;29;20102;-68
2023/04/09 00:47:38;;;;;;;2.80;1.35;;;14.20;45.00;;;;;;5990092;29;20065;-68
2023/04/09 00:50:39;;;;;;;2.05;1.40;;;14.20;45.20;;;;;;5959777;29;20042;-68
2023/04/09 00:53:40;;;;;;;2.25;1.30;;;14.10;45.10;;;;;;5961533;29;20035;-70
2023/04/09 00:56:42;;;;;;;3.05;1.30;;;14.00;45.10;;;;;;5961060;29;20092;-68
2023/04/09 00:59:43;;;;;;;1.52;1.17;;;14.00;45.30;;;;;;5989882;29;20497;-68
2023/04/09 01:02:45;;;;;;;2.22;1.27;;;13.90;45.50;;;;;;5974481;29;20074;-67
2023/04/09 01:06:04;;;;;;;3.05;1.20;;;13.90;45.60;;;;;;5974790;29;20031;-68
2023/04/09 01:09:21;;;;;;;3.22;1.48;;;13.80;45.90;;;;;;5960544;29;20031;-67
2023/04/09 01:12:44;;;;;;;3.08;1.40;;;13.80;46.00;;;;;;6006419;29;20036;-68
2023/04/09 01:15:55;;;;;;;5.82;1.63;;;13.80;46.20;;;;;;6035196;29;20065;-67
2023/04/09 01:19:00;;;;;;;2.83;1.25;;;13.70;46.20;;;;;;6004097;29;20029;-67
2023/04/09 01:22:07;;;;;;;1.95;1.20;;;13.70;46.20;;;;;;6001561;29;20026;-68
2023/04/09 01:25:40;;;;;;;2.75;1.20;;;13.60;46.20;;;;;;5983123;29;20126;-68
2023/04/09 01:28:46;;;;;;;1.38;1.20;;;13.60;46.40;;;;;;5982460;29;20058;-68
2023/04/09 01:31:49;;;;;;;1.23;1.00;;;13.60;46.40;;;;;;5983269;29;20071;-69
2023/04/09 01:34:50;;;;;;;3.92;1.20;;;13.60;46.40;;;;;;5996970;29;20030;-68
2023/04/09 01:37:53;;;;;;;3.40;1.27;;;13.60;46.50;;;;;;6030504;29;20018;-67
2023/04/09 01:40:55;;;;;;;3.53;1.23;;;13.60;46.70;;;;;;6004104;29;20034;-68
2023/04/09 01:44:00;;;;;;;8.88;1.75;;;13.60;46.90;;;;;;6002299;29;20288;-69
2023/04/09 01:47:02;;;;;;;2.13;1.40;;;13.50;46.90;;;;;;6011443;29;20035;-67
2023/04/09 01:50:03;;;;;;;2.40;1.40;;;13.50;47.10;;;;;;6011603;29;20126;-68
2023/04/09 01:53:04;;;;;;;1.92;1.23;;;13.50;47.30;;;;;;5982339;29;20075;-68
2023/04/09 01:56:07;;;;;;;2.42;1.08;;;13.50;47.40;;;;;;5982563;29;20356;-67
2023/04/09 01:59:08;;;;;;;3.05;1.25;;;13.50;47.40;;;;;;5996065;29;20034;-67
2023/04/09 02:02:16;;;;;;;2.13;1.23;;;13.50;47.50;;;;;;5996659;29;20356;-69
2023/04/09 02:05:19;;;;;;;2.83;1.40;;;13.50;47.40;;;;;;5996752;29;20452;-68
2023/04/09 02:08:21;;;;;;;2.83;1.40;;;13.50;47.40;;;;;;5996526;29;20103;-67
2023/04/09 02:11:24;;;;;;;5.30;1.52;;;13.40;47.40;;;;;;5989215;29;20025;-68
2023/04/09 02:14:27;;;;;;;3.63;1.40;;;13.40;47.50;;;;;;6003319;29;20076;-68
2023/04/09 02:17:28;;;;;;;2.47;1.20;;;13.40;47.60;;;;;;6003032;29;20030;-67
2023/04/09 02:20:28;;;;;;;1.98;1.20;;;13.40;47.70;;;;;;6014424;29;20037;-68
2023/04/09 02:23:33;;;;;;;2.20;1.33;;;13.30;47.80;;;;;;6011045;29;20119;-68
2023/04/09 02:26:34;;;;;;;6.00;1.80;;;13.30;47.70;;;;;;5982346;29;20133;-69
2023/04/09 02:29:35;;;;;;;2.70;1.50;;;13.30;47.90;;;;;;5980628;29;20034;-67
2023/04/09 02:32:36;;;;;;;1.52;1.10;;;13.30;48.10;;;;;;6011456;29;20591;-67
2023/04/09 02:35:37;;;;;;;2.13;1.27;;;13.30;48.10;;;;;;6009824;29;20038;-68
2023/04/09 02:38:41;;;;;;;2.50;1.63;;;13.30;48.10;;;;;;6022408;29;20333;-68
2023/04/09 02:41:42;;;;;;;1.88;1.20;;;13.20;47.90;;;;;;6004229;29;20022;-69
2023/04/09 02:44:43;;;;;;;2.55;1.42;;;13.20;47.90;;;;;;5996616;29;20095;-69
2023/04/09 02:47:45;;;;;;;2.45;1.60;;;13.20;48.00;;;;;;5980050;29;20179;-67
2023/04/09 02:50:46;;;;;;;3.70;1.67;;;13.20;48.20;;;;;;6010417;29;20094;-67
2023/04/09 02:53:47;;;;;;;3.50;1.63;;;13.20;48.30;;;;;;5981881;29;20306;-67
2023/04/09 02:56:48;;;;;;;2.63;1.65;;;13.20;48.30;;;;;;5995403;29;20030;-68
2023/04/09 02:59:49;;;;;;;3.65;1.98;;;13.20;48.40;;;;;;6010723;29;20027;-67
2023/04/09 03:02:50;;;;;;;4.80;2.10;;;13.20;48.50;;;;;;6010926;29;20034;-68
2023/04/09 03:05:50;;;;;;;3.50;1.55;;;13.20;48.70;;;;;;5981967;29;20053;-68
2023/04/09 03:08:51;;;;;;;3.90;1.77;;;13.20;48.80;;;;;;5980078;29;20034;-68
2023/04/09 03:11:52;;;;;;;4.00;2.10;;;13.10;48.90;;;;;;6022932;29;20041;-68
2023/04/09 03:14:53;;;;;;;2.58;1.90;;;13.10;49.10;;;;;;5997069;29;20031;-68
2023/04/09 03:17:54;;;;;;;3.67;1.83;;;13.10;49.10;;;;;;5981023;29;20125;-67
2023/04/09 03:20:55;;;;;;;2.38;1.60;;;13.10;49.10;;;;;;5981416;29;20083;-67
2023/04/09 03:23:56;;;;;;;4.15;1.90;;;13.10;49.20;;;;;;6010112;29;20046;-67
2023/04/09 03:26:57;;;;;;;6.18;2.10;;;13.00;49.30;;;;;;6010127;29;20555;-67
2023/04/09 03:29:58;;;;;;;5.65;1.63;;;13.00;49.50;;;;;;6009863;29;20034;-68
2023/04/09 03:33:07;;;;;;;4.47;1.85;;;12.90;49.50;;;;;;6009976;29;20109;-68
2023/04/09 03:36:17;;;;;;;3.28;1.83;;;12.90;49.50;;;;;;6009918;29;20064;-68
2023/04/09 03:39:38;;;;;;;2.58;1.73;;;12.90;49.50;;;;;;6029576;29;20029;-68
2023/04/09 03:42:41;;;;;;;4.53;1.77;;;12.80;49.60;;;;;;6003682;29;20625;-68
2023/04/09 03:45:42;;;;;;;4.55;2.30;;;12.80;49.60;;;;;;5988569;29;20034;-67
2023/04/09 03:48:54;;;;;;;3.72;1.63;;;12.80;49.60;;;;;;6013924;29;20030;-67
2023/04/09 03:51:56;;;;;;;3.40;1.80;;;12.80;49.60;;;;;;6013929;29;20168;-69
2023/04/09 03:55:02;;;;;;;4.97;1.70;;;12.80;49.60;;;;;;5983629;29;20058;-68
2023/04/09 03:58:03;;;;;;;4.03;2.00;;;12.70;49.50;;;;;;6013983;29;20027;-68
2023/04/09 04:01:07;;;;;;;3.17;1.85;;;12.70;49.60;;;;;;6013804;29;20070;-68
2023/04/09 04:04:16;;;;;;;10.60;2.45;;;12.60;49.70;;;;;;6014060;29;20038;-68
2023/04/09 04:07:26;;;;;;;2.10;1.60;;;12.60;49.90;;;;;;5996945;29;20043;-67
2023/04/09 04:10:33;;;;;;;3.30;2.13;;;12.60;50.00;;;;;;5984116;29;20049;-69
2023/04/09 04:13:34;;;;;;;4.07;2.00;;;12.50;50.20;;;;;;6013954;29;20034;-69
2023/04/09 04:16:40;;;;;;;5.18;2.10;;;12.40;50.30;;;;;;6013903;29;20038;-68
2023/04/09 04:19:41;;;;;;;5.25;2.35;;;12.40;50.50;;;;;;5983323;29;20042;-67
2023/04/09 04:22:42;;;;;;;5.07;1.80;;;12.30;50.60;;;;;;6014535;29;20041;-70
2023/04/09 04:25:43;;;;;;;2.47;1.45;;;12.30;50.70;;;;;;6014495;29;20038;-69
2023/04/09 04:28:48;;;;;;;3.80;1.80;;;12.30;50.80;;;;;;6013700;29;20046;-68
2023/04/09 04:32:00;;;;;;;7.32;1.83;;;12.20;50.80;;;;;;6013542;29;20038;-69
2023/04/09 04:35:07;;;;;;;4.47;1.88;;;12.20;50.90;;;;;;6013461;29;20042;-68
2023/04/09 04:38:09;;;;;;;4.63;2.13;;;12.20;50.90;;;;;;6021463;29;20034;-67
2023/04/09 04:41:12;;;;;;;2.55;1.80;;;12.10;51.10;;;;;;6020844;29;20113;-68
2023/04/09 04:44:18;;;;;;;4.25;2.20;;;12.10;51.30;;;;;;6000832;29;20107;-69
2023/04/09 04:47:20;;;;;;;7.28;2.40;;;12.00;51.30;;;;;;6012696;29;20050;-68
2023/04/09 04:50:20;;;;;;;5.45;2.03;;;12.00;51.40;;;;;;6012953;29;20101;-69
2023/04/09 04:53:33;;;;;;;3.67;1.85;;;12.00;51.50;;;;;;6012967;29;20030;-68
2023/04/09 04:56:40;;;;;;;3.67;1.75;;;12.00;51.50;;;;;;6012898;29;20092;-69
2023/04/09 04:59:50;;;;;;;2.58;1.50;;;12.00;51.50;;;;;;6011767;29;20041;-69
2023/04/09 05:02:52;;;;;;;2.42;1.70;;;12.00;51.60;;;;;;5982403;29;20130;-66
2023/04/09 05:06:00;;;;;;;2.33;1.70;;;12.00;51.60;;;;;;5998280;29;20547;-67
2023/04/09 05:09:07;;;;;;;4.38;2.03;;;11.90;51.50;;;;;;5981697;29;20042;-69
2023/04/09 05:12:16;;;;;;;4.10;1.85;;;11.90;51.60;;;;;;6028150;29;20065;-68
2023/04/09 05:15:21;;;;;;;8.90;2.15;;;11.90;51.60;;;;;;6004783;29;20060;-69
2023/04/09 05:18:22;;;;;;;2.88;1.88;;;11.80;51.50;;;;;;6004709;29;20038;-68
2023/04/09 05:21:23;;;;;;;3.38;1.55;;;11.80;51.50;;;;;;6035599;29;20054;-67
2023/04/09 05:24:27;;;;;;;4.15;2.00;;;11.80;51.60;;;;;;6012593;29;20404;-68
2023/04/09 05:27:29;;;;;;;4.40;1.75;;;11.80;51.50;;;;;;5983013;29;20030;-68
2023/04/09 05:30:34;;;;;;;3.58;1.48;;;11.80;51.50;;;;;;6012254;29;20098;-68
2023/04/09 05:33:38;;;;;;;3.55;1.95;;;11.80;51.60;;;;;;6012128;29;20440;-67
2023/04/09 05:36:48;;;;;;;3.30;2.00;;;11.80;51.60;;;;;;6012149;29;20122;-68
2023/04/09 05:39:49;;;;;;;7.05;2.70;;;11.80;51.60;;;;;;5996559;29;20108;-70
2023/04/09 05:42:50;;;;;;;2.78;1.67;;;11.70;51.70;;;;;;5983516;29;20064;-67
2023/04/09 05:46:01;;;;;;;6.10;2.25;;;11.70;51.70;;;;;;6012568;29;20139;-67
2023/04/09 05:49:02;;;;;;;5.72;2.22;;;11.60;51.80;;;;;;6012891;29;20035;-69
2023/04/09 05:52:04;;;;;;;6.25;2.10;;;11.70;52.10;;;;;;6012194;29;20038;-68
2023/04/09 05:55:08;;;;;;;3.85;2.15;;;11.60;52.10;;;;;;5996445;29;20065;-68
2023/04/09 05:58:28;;;;;;;3.95;2.35;;;11.60;52.10;;;;;;6011645;29;20065;-67
2023/04/09 06:01:30;;;;;;;6.43;2.47;;;11.60;52.20;;;;;;5981127;29;20390;-68
2023/04/09 06:04:31;;;;;;;8.82;2.90;;;11.60;52.30;;;;;;6012113;29;20035;-69
2023/04/09 06:07:34;;;;;;;7.35;3.15;;;11.60;52.40;;;;;;6011522;29;20049;-68
2023/04/09 06:10:35;;;;;;;4.55;2.42;;;11.60;52.40;;;;;;6013833;29;20061;-67
2023/04/09 06:13:36;;;;;;;7.45;3.08;;;11.60;52.50;;;;;;6018593;29;20089;-67
2023/04/09 06:16:37;;;;;;;7.38;2.58;;;11.60;52.50;;;;;;6033962;29;20045;-69
2023/04/09 06:19:37;;;;;;;8.90;3.63;;;11.70;52.40;;;;;;5988549;29;20132;-69
2023/04/09 06:22:38;;;;;;;9.07;4.47;;;11.70;52.40;;;;;;5981871;29;20064;-67
2023/04/09 06:25:39;;;;;;;6.25;3.20;;;11.60;52.30;;;;;;6010855;29;20031;-67
2023/04/09 06:28:40;;;;;;;5.13;2.50;;;11.70;52.30;;;;;;5981516;29;20032;-68
2023/04/09 06:31:41;;;;;;;5.03;2.30;;;11.80;52.40;;;;;;5981970;29;20484;-68
2023/04/09 06:34:42;;;;;;;6.43;2.55;;;11.80;52.30;;;;;;5982013;29;20083;-68
2023/04/09 06:37:42;;;;;;;5.60;2.97;;;11.80;52.30;;;;;;5986785;29;20041;-69
2023/04/09 06:40:44;;;;;;;5.28;2.97;;;11.90;52.40;;;;;;6004195;29;20030;-67
2023/04/09 06:43:44;;;;;;;7.53;3.28;;;11.90;52.30;;;;;;6004095;29;20033;-68
2023/04/09 06:46:45;;;;;;;5.90;2.55;;;12.10;52.30;;;;;;5981732;29;20361;-69
2023/04/09 06:49:46;;;;;;;4.93;2.15;;;12.10;52.10;;;;;;6010494;29;20087;-68
2023/04/09 06:52:47;;;;;;;6.03;2.85;;;12.30;51.90;;;;;;5981706;29;20141;-68
2023/04/09 06:55:48;;;;;;;6.75;2.60;;;12.40;51.90;;;;;;5981598;29;20067;-68
2023/04/09 06:58:48;;;;;;;5.63;2.63;;;12.50;51.50;;;;;;5981180;29;20057;-68
2023/04/09 07:01:49;;;;;;;6.90;2.65;;;12.70;51.30;;;;;;6010336;29;20464;-68
2023/04/09 07:04:50;;;;;;;4.32;2.20;;;12.80;51.00;;;;;;5979794;29;20477;-69
2023/04/09 07:07:51;;;;;;;4.35;2.30;;;12.90;50.90;;;;;;5981216;29;20083;-69
2023/04/09 07:10:52;;;;;;;6.47;2.10;;;13.00;50.50;;;;;;5985524;29;20030;-68
2023/04/09 07:13:54;;;;;;;3.80;2.35;;;13.10;50.30;;;;;;6004035;29;20030;-69
2023/04/09 07:16:55;;;;;;;3.25;1.98;;;13.20;50.20;;;;;;5980872;29;20787;-68
2023/04/09 07:19:56;;;;;;;2.88;2.10;;;13.30;49.90;;;;;;5982278;29;20027;-68
2023/04/09 07:22:56;;;;;;;7.10;3.08;;;13.40;49.60;;;;;;5986521;29;20467;-68
2023/04/09 07:26:00;;;;;;;7.00;2.30;;;13.40;49.60;;;;;;5986985;29;20061;-69
2023/04/09 07:29:02;;;;;;;5.53;2.58;;;13.50;49.60;;;;;;5985033;29;20054;-69
2023/04/09 07:32:03;;;;;;;3.35;2.15;;;13.60;49.50;;;;;;5985592;29;20031;-66
2023/04/09 07:35:06;;;;;;;3.10;2.13;;;13.70;49.40;;;;;;5985232;29;20034;-68
2023/04/09 07:38:07;;;;;;;10.23;3.15;;;13.90;49.30;;;;;;5993180;29;20182;-69
2023/04/09 07:41:10;;;;;;;4.95;2.13;;;14.00;48.90;;;;;;6006592;29;20037;-68
2023/04/09 07:44:11;;;;;;;4.88;2.50;;;14.20;48.60;;;;;;6004273;29;20031;-68
2023/04/09 07:47:12;;;;;;;5.40;2.30;;;14.40;48.30;;;;;;5985024;29;20062;-67
2023/04/09 07:50:12;;;;;;;4.72;2.13;;;14.60;48.10;;;;;;6014143;29;20890;-68
2023/04/09 07:53:13;;;;;;;4.43;2.20;;;14.70;47.80;;;;;;5984602;29;20091;-68
2023/04/09 07:56:14;;;;;;;5.20;2.40;;;14.80;47.40;;;;;;5984565;29;20044;-68
2023/04/09 07:59:15;;;;;;;5.30;2.78;;;14.90;47.20;;;;;;5984318;29;20385;-68
2023/04/09 08:02:16;;;;;;;4.13;2.10;;;15.00;47.10;;;;;;5984797;29;20041;-69
2023/04/09 08:05:17;;;;;;;4.35;2.45;;;15.20;46.80;;;;;;5984747;29;20034;-68
2023/04/09 08:08:18;;;;;;;5.60;2.38;;;15.20;46.60;;;;;;5984733;29;20446;-67
2023/04/09 08:11:24;;;;;;;4.35;2.72;;;15.30;46.50;;;;;;5992247;29;20156;-68
2023/04/09 08:14:25;;;;;;;7.95;2.90;;;15.40;47.10;;;;;;6004370;29;20101;-69
2023/04/09 08:17:26;;;;;;;5.03;2.88;;;15.60;46.40;;;;;;5983958;29;20078;-70
2023/04/09 08:20:28;;;;;;;6.13;2.65;;;15.70;46.00;;;;;;6013966;29;20112;-69
2023/04/09 08:23:29;;;;;;;5.28;2.92;;;15.80;45.80;;;;;;5984591;29;20083;-68
2023/04/09 08:26:30;;;;;;;9.32;3.03;;;16.00;45.60;;;;;;6013874;29;20034;-68
2023/04/09 08:29:33;;;;;;;5.75;3.10;;;16.10;45.40;;;;;;5984266;29;20157;-69
2023/04/09 08:32:34;;;;;;;5.72;3.00;;;16.20;45.20;;;;;;5983087;29;20038;-68
2023/04/09 08:35:37;;;;;;;8.13;3.45;;;16.30;45.10;;;;;;5982985;29;20062;-69
2023/04/09 08:38:37;;;;;;;5.43;2.78;;;16.40;44.90;;;;;;6025085;29;20105;-68
2023/04/09 08:41:44;;;;;;;4.55;2.63;;;16.50;44.80;;;;;;6006902;29;20036;-68
2023/04/09 08:44:45;;;;;;;4.47;2.40;;;16.60;44.40;;;;;;5999463;29;20022;-69
2023/04/09 08:47:48;;;;;;;7.43;3.38;;;16.70;44.20;;;;;;5984448;29;20120;-68
2023/04/09 08:50:49;;;;;;;5.55;3.25;;;16.80;44.20;;;;;;6013757;29;20095;-68
2023/04/09 08:53:57;;;;;;;5.32;3.30;;;16.90;44.00;;;;;;5984676;29;20030;-67
2023/04/09 08:56:58;;;;;;;8.20;3.80;;;17.00;43.80;;;;;;6013056;29;20138;-69
2023/04/09 08:59:59;;;;;;;6.00;2.95;;;17.10;43.30;;;;;;5983900;29;20530;-71
2023/04/09 09:03:03;;;;;;;4.70;3.15;;;17.10;43.40;;;;;;6012972;29;20038;-68
2023/04/09 09:06:21;;;;;;;5.32;2.90;;;17.10;43.30;;;;;;6012910;29;20038;-68
2023/04/09 09:09:22;;;;;;;6.93;3.17;;;17.10;43.40;;;;;;5983340;29;20037;-68
2023/04/09 09:12:52;;;;;;;4.60;2.67;;;17.20;43.10;;;;;;5983930;29;20472;-68
2023/04/09 09:16:10;;;;;;;4.68;2.70;;;17.20;43.00;;;;;;5957597;29;20038;-67
2023/04/09 09:19:25;;;;;;;5.78;3.22;;;17.30;42.60;;;;;;5957527;29;20148;-68
2023/04/09 09:22:26;;;;;;;5.47;3.10;;;17.30;42.10;;;;;;5942449;29;20080;-68
2023/04/09 09:25:29;;;;;;;4.28;2.65;;;17.30;42.10;;;;;;5957166;29;20053;-68
2023/04/09 09:28:35;;;;;;;4.22;2.53;;;17.40;42.30;;;;;;5956958;29;20110;-70
2023/04/09 09:31:48;;;;;;;5.43;2.95;;;17.50;42.00;;;;;;5941992;29;20152;-68
2023/04/09 09:35:05;;;;;;;7.20;3.58;;;17.60;41.70;;;;;;5957235;29;20031;-68
2023/04/09 09:38:06;;;;;;;5.10;2.83;;;17.70;41.50;;;;;;5964695;29;20080;-67
2023/04/09 09:41:16;;;;;;;5.60;2.78;;;17.70;41.30;;;;;;5964124;29;20090;-67
2023/04/09 09:44:31;;;;;;;7.88;2.67;;;17.80;41.30;;;;;;5959554;29;20519;-67
2023/04/09 09:47:34;;;;;;;3.88;2.10;;;18.00;41.20;;;;;;5941805;29;20133;-68
2023/04/09 09:50:37;;;;;;;3.15;2.08;;;18.10;41.00;;;;;;5942175;29;20526;-68
2023/04/09 09:53:40;;;;;;;3.60;1.80;;;18.20;40.30;;;;;;5996409;29;20146;-67
2023/04/09 09:56:42;;;;;;;3.08;2.03;;;18.20;39.80;;;;;;5982387;29;20117;-69
2023/04/09 09:59:51;;;;;;;3.17;2.08;;;18.20;39.80;;;;;;5982714;29;20030;-69
2023/04/09 10:03:14;;;;;;;3.65;2.03;;;18.30;39.60;;;;;;5982769;29;20576;-68
2023/04/09 10:06:15;;;;;;;2.72;1.85;;;18.30;39.50;;;;;;6012417;29;20038;-69
2023/04/09 10:09:17;;;;;;;2.20;1.75;;;18.40;39.60;;;;;;5983654;29;20042;-68
2023/04/09 10:12:22;;;;;;;4.40;2.15;;;18.30;39.30;;;;;;5998656;29;20060;-67
2023/04/09 10:15:24;;;;;;;2.88;1.92;;;18.50;38.90;;;;;;6004789;29;20041;-69
2023/04/09 10:18:25;;;;;;;3.58;2.00;;;18.60;38.70;;;;;;6003558;29;20037;-67
2023/04/09 10:21:44;;;;;;;5.03;2.10;;;18.70;38.80;;;;;;6004982;29;20033;-68
2023/04/09 10:24:46;;;;;;;2.63;1.88;;;18.80;38.60;;;;;;5993215;29;20033;-69
2023/04/09 10:27:59;;;;;;;3.17;1.67;;;18.80;38.20;;;;;;6011152;29;20204;-69
2023/04/09 10:31:00;;;;;;;5.10;2.05;;;18.90;37.90;;;;;;5982556;29;20042;-69
2023/04/09 10:34:03;;;;;;;4.30;2.15;;;19.00;37.30;;;;;;5982165;29;20072;-70
2023/04/09 10:37:07;;;;;;;2.58;1.40;;;19.10;36.80;;;;;;5982104;29;20374;-69
2023/04/09 10:40:19;;;;;;;5.88;1.83;;;19.00;37.00;;;;;;6003023;29;20444;-68
2023/04/09 10:43:21;;;;;;;2.00;1.58;;;19.10;36.90;;;;;;6004747;29;20102;-69
2023/04/09 10:46:29;;;;;;;1.75;1.27;;;19.20;36.60;;;;;;5968253;29;20046;-68
2023/04/09 10:49:39;;;;;;;3.00;1.17;;;19.30;35.80;;;;;;5959450;29;20100;-68
2023/04/09 10:52:41;;;;;;;5.38;1.98;;;19.50;35.80;;;;;;5959749;29;20062;-68
2023/04/09 10:55:49;;;;;;;3.88;1.38;;;19.80;35.30;;;;;;5987767;29;20074;-68
2023/04/09 10:58:50;;;;;;;1.83;1.40;;;20.20;35.10;;;;;;5959569;29;20376;-68
2023/04/09 11:01:53;;;;;;;2.42;1.27;;;20.50;34.70;;;;;;5980631;29;20038;-69
2023/04/09 11:05:09;;;;;;;2.85;1.30;;;20.90;34.20;;;;;;6010845;29;20060;-68
2023/04/09 11:08:11;;;;;;;5.38;1.92;;;21.30;33.90;;;;;;5981163;29;20499;-68
2023/04/09 11:11:12;;;;;;;6.53;2.80;;;21.70;33.10;;;;;;6018089;29;20034;-68
2023/04/09 11:14:19;;;;;;;3.40;2.00;;;22.10;32.50;;;;;;6004386;29;20034;-69
2023/04/09 11:17:20;;;;;;;4.53;1.23;;;22.40;31.60;;;;;;6002392;29;20045;-69
2023/04/09 11:20:23;;;;;;;2.30;1.20;;;22.60;30.90;;;;;;6002531;29;20034;-69
2023/04/09 11:23:25;;;;;;;5.05;1.67;;;22.80;30.50;;;;;;6030985;29;20360;-68
2023/04/09 11:26:35;;;;;;;1.33;0.93;;;23.00;30.30;;;;;;6010165;29;20034;-69
2023/04/09 11:29:35;;;;;;;1.75;1.20;;;23.20;30.10;;;;;;5979666;29;20114;-69
2023/04/09 11:32:36;;;;;;;2.63;1.30;;;23.40;30.00;;;;;;5979872;29;20135;-67
2023/04/09 11:35:37;;;;;;;2.35;1.23;;;23.70;30.00;;;;;;5981547;29;20034;-67
2023/04/09 11:38:38;;;;;;;3.08;0.98;;;23.90;29.90;;;;;;5992827;29;20419;-68
2023/04/09 11:41:39;;;;;;;2.33;1.40;;;24.10;29.80;;;;;;5992877;29;20081;-68
2023/04/09 11:44:40;;;;;;;1.63;1.10;;;24.40;29.00;;;;;;5973461;29;20023;-69
2023/04/09 11:47:43;;;;;;;2.25;1.33;;;24.50;28.40;;;;;;5958139;29;20394;-69
2023/04/09 11:50:44;;;;;;;1.50;1.20;;;24.70;27.90;;;;;;5958273;29;20030;-69
2023/04/09 11:53:48;;;;;;;1.80;1.38;;;24.80;27.70;;;;;;5958295;29;20489;-69
2023/04/09 11:56:54;;;;;;;2.22;1.52;;;25.00;27.70;;;;;;5969963;29;20042;-69
2023/04/09 11:59:55;;;;;;;3.53;1.40;;;25.30;27.50;;;;;;6009144;29;20062;-68
2023/04/09 12:03:04;;;;;;;1.90;1.35;;;25.70;27.40;;;;;;6009765;29;20429;-69
2023/04/09 12:06:06;;;;;;;1.58;1.05;;;26.00;27.00;;;;;;5980522;29;20109;-68
2023/04/09 12:09:08;;;;;;;2.10;1.20;;;26.20;26.60;;;;;;5984051;29;20038;-69
2023/04/09 12:12:10;;;;;;;5.38;1.20;;;26.50;26.50;;;;;;5997215;29;20050;-69
2023/04/09 12:15:19;;;;;;;2.17;1.35;;;26.90;26.10;;;;;;6007274;29;20044;-68
2023/04/09 12:18:22;;;;;;;2.33;1.40;;;27.30;25.60;;;;;;6005373;29;20030;-69
2023/04/09 12:21:26;;;;;;;1.45;1.27;;;27.50;25.20;;;;;;6006896;29;20045;-69
2023/04/09 12:24:27;;;;;;;1.05;0.90;;;27.90;24.70;;;;;;5996904;29;20034;-67
2023/04/09 12:27:28;;;;;;;5.10;1.25;;;28.30;24.10;;;;;;5984266;29;20034;-68
2023/04/09 12:30:29;;;;;;;4.55;2.10;;;28.50;23.60;;;;;;6013660;29;20034;-69
2023/04/09 12:33:31;;;;;;;2.10;1.10;;;28.70;23.20;;;;;;5984265;29;20129;-69
2023/04/09 12:36:31;;;;;;;5.20;2.65;;;29.10;22.80;;;;;;6013213;29;20087;-68
2023/04/09 12:39:32;;;;;;;6.32;4.05;;;29.70;22.40;;;;;;6002962;29;20484;-68
2023/04/09 12:42:33;;;;;;;2.40;1.40;;;30.20;22.00;;;;;;6006620;29;20026;-68
2023/04/09 12:45:34;;;;;;;2.17;1.23;;;30.90;21.40;;;;;;6021669;29;20077;-68
2023/04/09 12:48:35;;;;;;;1.88;1.00;;;31.30;20.80;;;;;;5983931;29;20036;-68
2023/04/09 12:51:36;;;;;;;2.45;1.50;;;31.80;20.50;;;;;;5997227;29;20069;-69
2023/04/09 12:54:38;;;;;;;3.05;1.50;;;32.30;20.20;;;;;;5982127;29;20045;-68
2023/04/09 12:57:42;;;;;;;2.05;1.17;;;32.80;19.80;;;;;;5983313;29;20102;-68
2023/04/09 13:00:43;;;;;;;3.15;1.17;;;33.00;19.70;;;;;;5983314;29;20044;-68
2023/04/09 13:03:44;;;;;;;1.55;1.45;;;33.10;19.80;;;;;;5983420;29;20449;-68
2023/04/09 13:06:45;;;;;;;2.08;1.30;;;33.50;19.70;;;;;;5983377;29;20046;-69
2023/04/09 13:09:49;;;;;;;2.00;1.50;;;33.60;19.50;;;;;;5984101;29;20034;-69
2023/04/09 13:12:50;;;;;;;3.08;1.23;;;33.70;19.40;;;;;;5984475;29;20034;-70
2023/04/09 13:15:51;;;;;;;1.40;1.15;;;33.80;19.30;;;;;;6012635;29;20090;-69
2023/04/09 13:18:52;;;;;;;2.00;1.30;;;33.80;19.20;;;;;;5982138;29;20069;-69
2023/04/09 13:21:52;;;;;;;4.32;1.50;;;33.90;19.10;;;;;;6012615;29;20425;-69
2023/04/09 13:24:53;;;;;;;6.50;1.15;;;33.90;19.10;;;;;;5983496;29;20109;-70
2023/04/09 13:27:54;;;;;;;0.95;0.93;;;34.10;19.00;;;;;;5983273;29;20034;-68
2023/04/09 13:30:55;;;;;;;1.73;1.10;;;34.40;18.70;;;;;;6012330;29;20034;-69
2023/04/09 13:33:56;;;;;;;1.35;1.20;;;34.40;18.50;;;;;;5982965;29;20049;-69
2023/04/09 13:36:56;;;;;;;2.75;1.20;;;34.40;18.50;;;;;;5982720;29;20349;-69
2023/04/09 13:39:57;;;;;;;2.90;1.30;;;34.10;18.50;;;;;;6004851;29;20585;-68
2023/04/09 13:42:58;;;;;;;1.75;1.00;;;33.60;18.70;;;;;;6004970;29;20068;-69
2023/04/09 13:45:59;;;;;;;1.77;1.33;;;33.20;19.10;;;;;;6005129;29;20115;-69
2023/04/09 13:49:01;;;;;;;1.80;1.30;;;33.00;19.00;;;;;;5993867;29;20038;-69
2023/04/09 13:52:03;;;;;;;4.55;1.48;;;33.00;19.10;;;;;;6011631;29;20215;-70
2023/04/09 13:55:04;;;;;;;1.55;1.20;;;33.20;19.50;;;;;;5982488;29;20449;-70
2023/04/09 13:58:05;;;;;;;1.30;1.13;;;33.10;19.00;;;;;;5982416;29;20033;-69
2023/04/09 14:01:06;;;;;;;4.70;1.00;;;33.10;18.90;;;;;;5982402;29;20030;-70
2023/04/09 14:04:07;;;;;;;1.23;1.02;;;32.70;19.10;;;;;;5982984;29;20045;-69
2023/04/09 14:07:08;;;;;;;2.03;1.35;;;31.70;19.70;;;;;;5982545;29;20069;-69
2023/04/09 14:10:09;;;;;;;5.15;1.30;;;30.70;20.40;;;;;;5982670;29;20388;-69
2023/04/09 14:13:12;;;;;;;2.53;1.23;;;29.80;21.00;;;;;;6004860;29;20054;-68
2023/04/09 14:16:13;;;;;;;2.08;1.42;;;29.10;21.50;;;;;;6004920;29;20057;-68
2023/04/09 14:19:13;;;;;;;1.83;1.52;;;28.40;22.10;;;;;;6004590;29;20499;-68
2023/04/09 14:22:14;;;;;;;3.95;1.23;;;27.80;22.70;;;;;;6005275;29;20026;-68
2023/04/09 14:25:16;;;;;;;1.60;1.25;;;27.10;23.20;;;;;;5988770;29;20113;-68
2023/04/09 14:28:16;;;;;;;2.90;1.40;;;26.60;23.70;;;;;;6011517;29;20039;-68
2023/04/09 14:31:20;;;;;;;1.52;1.30;;;26.10;24.20;;;;;;5982400;29;20185;-69
2023/04/09 14:34:21;;;;;;;3.65;1.05;;;25.70;24.70;;;;;;5982351;29;20358;-69
2023/04/09 14:37:22;;;;;;;2.92;1.40;;;25.20;25.10;;;;;;5983930;29;20034;-69
2023/04/09 14:40:23;;;;;;;1.92;1.45;;;24.80;25.60;;;;;;6004740;29;20030;-68
2023/04/09 14:43:24;;;;;;;1.40;1.10;;;24.50;26.10;;;;;;6004705;29;20492;-67
2023/04/09 14:46:25;;;;;;;3.20;1.30;;;24.20;26.40;;;;;;5986957;29;20046;-69
2023/04/09 14:49:26;;;;;;;1.88;1.25;;;24.00;26.60;;;;;;5982009;29;20496;-68
2023/04/09 14:52:29;;;;;;;1.65;1.27;;;23.90;27.00;;;;;;6011973;29;20065;-69
2023/04/09 14:55:30;;;;;;;2.65;1.30;;;23.70;27.20;;;;;;5982268;29;20042;-69
2023/04/09 14:58:30;;;;;;;1.55;1.30;;;23.60;27.30;;;;;;6011461;29;20030;-69
2023/04/09 15:01:31;;;;;;;1.70;1.30;;;23.50;27.70;;;;;;5982102;29;20042;-71
2023/04/09 15:04:32;;;;;;;1.25;1.15;;;23.40;28.00;;;;;;5982520;29;20030;-71
2023/04/09 15:07:33;;;;;;;2.72;1.20;;;23.30;28.20;;;;;;6010996;29;20391;-68
2023/04/09 15:10:35;;;;;;;1.42;1.20;;;23.20;28.20;;;;;;5984368;29;20023;-69
2023/04/09 15:13:36;;;;;;;1.42;1.13;;;23.10;28.40;;;;;;6004848;29;20388;-69
2023/04/09 15:16:37;;;;;;;1.38;1.20;;;23.10;28.60;;;;;;6004150;29;20046;-69
2023/04/09 15:19:38;;;;;;;1.70;1.17;;;23.10;28.70;;;;;;6003690;29;20074;-68
2023/04/09 15:22:39;;;;;;;1.98;1.20;;;23.00;28.80;;;;;;6004422;29;20033;-69
2023/04/09 15:25:40;;;;;;;3.10;1.30;;;23.00;29.40;;;;;;5986155;29;20037;-69
2023/04/09 15:28:41;;;;;;;2.17;1.48;;;23.00;28.80;;;;;;6002014;29;20057;-68
2023/04/09 15:31:41;;;;;;;1.67;1.30;;;22.90;28.70;;;;;;6003804;29;20041;-68
2023/04/09 15:34:42;;;;;;;3.47;1.33;;;22.90;28.70;;;;;;6003848;29;20342;-70
2023/04/09 15:37:43;;;;;;;1.45;1.13;;;22.90;28.70;;;;;;6003559;29;20040;-70
2023/04/09 15:40:44;;;;;;;1.80;1.20;;;23.00;28.50;;;;;;6029845;29;20125;-68
2023/04/09 15:43:45;;;;;;;1.40;1.00;;;23.00;28.50;;;;;;5983816;29;20026;-68
2023/04/09 15:46:46;;;;;;;4.45;1.17;;;23.10;28.50;;;;;;5983423;29;20469;-69
2023/04/09 15:49:46;;;;;;;4.55;1.25;;;23.00;28.50;;;;;;5985329;29;20034;-71
2023/04/09 15:52:47;;;;;;;2.00;1.48;;;23.10;28.60;;;;;;5984723;29;20068;-68
2023/04/09 15:55:49;;;;;;;2.70;1.40;;;23.10;28.50;;;;;;5985197;29;20052;-70